sensor_id;sensor_type;location;lat;lon;timestamp;temperature;humidity
7002;DHT22;3541;53.230;10.518;2023-08-20T00:00:20;22.40;99.90
7002;DHT22;3541;53.230;10.518;2023-08-20T00:02:52;22.30;99.90
7002;DHT22;3541;53.230;10.518;2023-08-20T00:05:22;22.40;99.90
7002;DHT22;3541;53.230;10.518;2023-08-20T00:07:49;22.30;99.90
7002;DHT22;3541;53.230;10.518;2023-08-20T00:10:16;22.20;99.90
7002;DHT22;3541;53.230;10.518;2023-08-20T00:12:43;22.10;99.90
7002;DHT22;3541;53.230;10.518;2023-08-20T00:15:11;22.10;99.90
7002;DHT22;3541;53.230;10.518;2023-08-20T00:17:39;22.10;99.90
7002;DHT22;3541;53.230;10.518;2023-08-20T00:20:08;22.10;99.90
7002;DHT22;3541;53.230;10.518;2023-08-20T00:22:38;22.10;99.90
7002;DHT22;3541;53.230;10.518;2023-08-20T00:25:06;22.00;99.90
7002;DHT22;3541;53.230;10.518;2023-08-20T00:27:33;21.90;99.90
7002;DHT22;3541;53.230;10.518;2023-08-20T00:30:00;21.80;99.90
7002;DHT22;3541;53.230;10.518;2023-08-20T00:32:28;21.70;99.90
7002;DHT22;3541;53.230;10.518;2023-08-20T00:34:55;21.60;99.90
7002;DHT22;3541;53.230;10.518;2023-08-20T00:37:21;21.60;99.90
7002;DHT22;3541;53.230;10.518;2023-08-20T00:39:48;21.70;99.90
7002;DHT22;3541;53.230;10.518;2023-08-20T00:42:15;21.70;99.90
7002;DHT22;3541;53.230;10.518;2023-08-20T00:44:41;21.70;99.90
7002;DHT22;3541;53.230;10.518;2023-08-20T00:47:10;21.70;99.90
7002;DHT22;3541;53.230;10.518;2023-08-20T00:49:38;21.70;99.90
7002;DHT22;3541;53.230;10.518;2023-08-20T00:52:06;21.60;99.90
7002;DHT22;3541;53.230;10.518;2023-08-20T00:54:34;21.50;99.90
7002;DHT22;3541;53.230;10.518;2023-08-20T00:57:02;21.50;99.90
7002;DHT22;3541;53.230;10.518;2023-08-20T00:59:30;21.60;99.90
7002;DHT22;3541;53.230;10.518;2023-08-20T01:01:57;21.60;99.90
7002;DHT22;3541;53.230;10.518;2023-08-20T01:04:23;21.60;99.90
7002;DHT22;3541;53.230;10.518;2023-08-20T01:07:01;21.60;99.90
7002;DHT22;3541;53.230;10.518;2023-08-20T01:09:36;21.50;99.90
7002;DHT22;3541;53.230;10.518;2023-08-20T01:12:08;21.50;99.90
7002;DHT22;3541;53.230;10.518;2023-08-20T01:14:36;21.50;99.90
7002;DHT22;3541;53.230;10.518;2023-08-20T01:17:03;21.50;99.90
7002;DHT22;3541;53.230;10.518;2023-08-20T01:19:30;21.50;99.90
7002;DHT22;3541;53.230;10.518;2023-08-20T01:22:12;21.50;99.90
7002;DHT22;3541;53.230;10.518;2023-08-20T01:24:47;21.50;99.90
7002;DHT22;3541;53.230;10.518;2023-08-20T01:27:31;21.50;99.90
7002;DHT22;3541;53.230;10.518;2023-08-20T01:30:04;21.50;99.90
7002;DHT22;3541;53.230;10.518;2023-08-20T01:32:31;21.50;99.90
7002;DHT22;3541;53.230;10.518;2023-08-20T01:34:58;21.50;99.90
7002;DHT22;3541;53.230;10.518;2023-08-20T01:37:25;21.50;99.90
7002;DHT22;3541;53.230;10.518;2023-08-20T01:39:51;21.50;99.90
7002;DHT22;3541;53.230;10.518;2023-08-20T01:42:18;21.50;99.90
7002;DHT22;3541;53.230;10.518;2023-08-20T01:44:44;21.40;99.90
7002;DHT22;3541;53.230;10.518;2023-08-20T01:47:12;21.40;99.90
7002;DHT22;3541;53.230;10.518;2023-08-20T01:49:39;21.40;99.90
7002;DHT22;3541;53.230;10.518;2023-08-20T01:52:05;21.40;99.90
7002;DHT22;3541;53.230;10.518;2023-08-20T01:54:32;21.40;99.90
7002;DHT22;3541;53.230;10.518;2023-08-20T01:56:59;21.40;99.90
7002;DHT22;3541;53.230;10.518;2023-08-20T01:59:25;21.40;99.90
7002;DHT22;3541;53.230;10.518;2023-08-20T02:01:52;21.40;99.90
7002;DHT22;3541;53.230;10.518;2023-08-20T02:04:20;21.30;99.90
7002;DHT22;3541;53.230;10.518;2023-08-20T02:06:46;21.20;99.90
7002;DHT22;3541;53.230;10.518;2023-08-20T02:09:13;21.20;99.90
7002;DHT22;3541;53.230;10.518;2023-08-20T02:11:39;21.20;99.90
7002;DHT22;3541;53.230;10.518;2023-08-20T02:14:06;21.10;99.90
7002;DHT22;3541;53.230;10.518;2023-08-20T02:16:33;21.20;99.90
7002;DHT22;3541;53.230;10.518;2023-08-20T02:18:59;21.10;99.90
7002;DHT22;3541;53.230;10.518;2023-08-20T02:21:28;21.20;99.90
7002;DHT22;3541;53.230;10.518;2023-08-20T02:23:55;21.10;99.90
7002;DHT22;3541;53.230;10.518;2023-08-20T02:26:22;21.10;99.90
7002;DHT22;3541;53.230;10.518;2023-08-20T02:28:48;21.10;99.90
7002;DHT22;3541;53.230;10.518;2023-08-20T02:31:15;21.00;99.90
7002;DHT22;3541;53.230;10.518;2023-08-20T02:33:41;21.00;99.90
7002;DHT22;3541;53.230;10.518;2023-08-20T02:36:08;21.00;99.90
7002;DHT22;3541;53.230;10.518;2023-08-20T02:38:36;21.00;99.90
7002;DHT22;3541;53.230;10.518;2023-08-20T02:41:02;20.90;99.90
7002;DHT22;3541;53.230;10.518;2023-08-20T02:43:29;20.90;99.90
7002;DHT22;3541;53.230;10.518;2023-08-20T02:45:56;20.90;99.90
7002;DHT22;3541;53.230;10.518;2023-08-20T02:48:23;20.90;99.90
7002;DHT22;3541;53.230;10.518;2023-08-20T02:50:52;20.90;99.90
7002;DHT22;3541;53.230;10.518;2023-08-20T02:53:18;20.90;99.90
7002;DHT22;3541;53.230;10.518;2023-08-20T02:55:47;20.90;99.90
7002;DHT22;3541;53.230;10.518;2023-08-20T02:58:13;20.80;99.90
7002;DHT22;3541;53.230;10.518;2023-08-20T03:00:41;20.90;99.90
7002;DHT22;3541;53.230;10.518;2023-08-20T03:03:08;20.90;99.90
7002;DHT22;3541;53.230;10.518;2023-08-20T03:05:35;20.80;99.90
7002;DHT22;3541;53.230;10.518;2023-08-20T03:08:02;20.80;99.90
7002;DHT22;3541;53.230;10.518;2023-08-20T03:10:30;20.80;99.90
7002;DHT22;3541;53.230;10.518;2023-08-20T03:12:58;20.80;99.90
7002;DHT22;3541;53.230;10.518;2023-08-20T03:15:26;20.80;99.90
7002;DHT22;3541;53.230;10.518;2023-08-20T03:17:52;20.70;99.90
7002;DHT22;3541;53.230;10.518;2023-08-20T03:20:19;20.80;99.90
7002;DHT22;3541;53.230;10.518;2023-08-20T03:22:45;20.80;99.90
7002;DHT22;3541;53.230;10.518;2023-08-20T03:25:12;20.70;99.90
7002;DHT22;3541;53.230;10.518;2023-08-20T03:27:39;20.70;99.90
7002;DHT22;3541;53.230;10.518;2023-08-20T03:30:07;20.70;99.90
7002;DHT22;3541;53.230;10.518;2023-08-20T03:32:34;20.70;99.90
7002;DHT22;3541;53.230;10.518;2023-08-20T03:35:01;20.70;99.90
7002;DHT22;3541;53.230;10.518;2023-08-20T03:37:28;20.60;99.90
7002;DHT22;3541;53.230;10.518;2023-08-20T03:39:55;20.60;99.90
7002;DHT22;3541;53.230;10.518;2023-08-20T03:42:21;20.60;99.90
7002;DHT22;3541;53.230;10.518;2023-08-20T03:44:48;20.60;99.90
7002;DHT22;3541;53.230;10.518;2023-08-20T03:47:15;20.60;99.90
7002;DHT22;3541;53.230;10.518;2023-08-20T03:49:45;20.60;99.90
7002;DHT22;3541;53.230;10.518;2023-08-20T03:52:12;20.50;99.90
7002;DHT22;3541;53.230;10.518;2023-08-20T03:54:38;20.50;99.90
7002;DHT22;3541;53.230;10.518;2023-08-20T03:57:05;20.50;99.90
7002;DHT22;3541;53.230;10.518;2023-08-20T03:59:31;20.50;99.90
7002;DHT22;3541;53.230;10.518;2023-08-20T04:01:58;20.50;99.90
7002;DHT22;3541;53.230;10.518;2023-08-20T04:04:26;20.40;99.90
7002;DHT22;3541;53.230;10.518;2023-08-20T04:06:53;20.50;99.90
7002;DHT22;3541;53.230;10.518;2023-08-20T04:09:20;20.50;99.90
7002;DHT22;3541;53.230;10.518;2023-08-20T04:11:47;20.50;99.90
7002;DHT22;3541;53.230;10.518;2023-08-20T04:14:13;20.40;99.90
7002;DHT22;3541;53.230;10.518;2023-08-20T04:16:40;20.40;99.90
7002;DHT22;3541;53.230;10.518;2023-08-20T04:19:06;20.30;99.90
7002;DHT22;3541;53.230;10.518;2023-08-20T04:21:34;20.30;99.90
7002;DHT22;3541;53.230;10.518;2023-08-20T04:24:01;20.30;99.90
7002;DHT22;3541;53.230;10.518;2023-08-20T04:26:27;20.30;99.90
7002;DHT22;3541;53.230;10.518;2023-08-20T04:28:54;20.30;99.90
7002;DHT22;3541;53.230;10.518;2023-08-20T04:31:21;20.30;99.90
7002;DHT22;3541;53.230;10.518;2023-08-20T04:33:47;20.30;99.90
7002;DHT22;3541;53.230;10.518;2023-08-20T04:36:14;20.30;99.90
7002;DHT22;3541;53.230;10.518;2023-08-20T04:38:42;20.30;99.90
7002;DHT22;3541;53.230;10.518;2023-08-20T04:41:08;20.30;99.90
7002;DHT22;3541;53.230;10.518;2023-08-20T04:43:35;20.30;99.90
7002;DHT22;3541;53.230;10.518;2023-08-20T04:46:01;20.30;99.90
7002;DHT22;3541;53.230;10.518;2023-08-20T04:48:28;20.30;99.90
7002;DHT22;3541;53.230;10.518;2023-08-20T04:50:55;20.30;99.90
7002;DHT22;3541;53.230;10.518;2023-08-20T04:53:21;20.30;99.90
7002;DHT22;3541;53.230;10.518;2023-08-20T04:55:49;20.30;99.90
7002;DHT22;3541;53.230;10.518;2023-08-20T04:58:16;20.30;99.90
7002;DHT22;3541;53.230;10.518;2023-08-20T05:00:42;20.30;99.90
7002;DHT22;3541;53.230;10.518;2023-08-20T05:03:09;20.30;99.90
7002;DHT22;3541;53.230;10.518;2023-08-20T05:05:36;20.30;99.90
7002;DHT22;3541;53.230;10.518;2023-08-20T05:08:03;20.40;99.90
7002;DHT22;3541;53.230;10.518;2023-08-20T05:10:30;20.40;99.90
7002;DHT22;3541;53.230;10.518;2023-08-20T05:12:58;20.40;99.90
7002;DHT22;3541;53.230;10.518;2023-08-20T05:15:24;20.30;99.90
7002;DHT22;3541;53.230;10.518;2023-08-20T05:17:51;20.30;99.90
7002;DHT22;3541;53.230;10.518;2023-08-20T05:20:17;20.30;99.90
7002;DHT22;3541;53.230;10.518;2023-08-20T05:22:44;20.30;99.90
7002;DHT22;3541;53.230;10.518;2023-08-20T05:25:10;20.30;99.90
7002;DHT22;3541;53.230;10.518;2023-08-20T05:27:37;20.30;99.90
7002;DHT22;3541;53.230;10.518;2023-08-20T05:30:06;20.30;99.90
7002;DHT22;3541;53.230;10.518;2023-08-20T05:32:34;20.30;99.90
7002;DHT22;3541;53.230;10.518;2023-08-20T05:35:01;20.20;99.90
7002;DHT22;3541;53.230;10.518;2023-08-20T05:37:29;20.20;99.90
7002;DHT22;3541;53.230;10.518;2023-08-20T05:39:55;20.20;99.90
7002;DHT22;3541;53.230;10.518;2023-08-20T05:42:22;20.30;99.90
7002;DHT22;3541;53.230;10.518;2023-08-20T05:44:49;20.20;99.90
7002;DHT22;3541;53.230;10.518;2023-08-20T05:47:16;20.20;99.90
7002;DHT22;3541;53.230;10.518;2023-08-20T05:49:43;20.30;99.90
7002;DHT22;3541;53.230;10.518;2023-08-20T05:52:10;20.30;99.90
7002;DHT22;3541;53.230;10.518;2023-08-20T05:54:36;20.30;99.90
7002;DHT22;3541;53.230;10.518;2023-08-20T05:57:03;20.30;99.90
7002;DHT22;3541;53.230;10.518;2023-08-20T05:59:30;20.40;99.90
7002;DHT22;3541;53.230;10.518;2023-08-20T06:01:56;20.40;99.90
7002;DHT22;3541;53.230;10.518;2023-08-20T06:04:24;20.40;99.90
7002;DHT22;3541;53.230;10.518;2023-08-20T06:06:51;20.50;99.90
7002;DHT22;3541;53.230;10.518;2023-08-20T06:09:17;20.50;99.90
7002;DHT22;3541;53.230;10.518;2023-08-20T06:11:44;20.50;99.90
7002;DHT22;3541;53.230;10.518;2023-08-20T06:14:10;20.50;99.90
7002;DHT22;3541;53.230;10.518;2023-08-20T06:16:37;20.50;99.90
7002;DHT22;3541;53.230;10.518;2023-08-20T06:19:03;20.50;99.90
7002;DHT22;3541;53.230;10.518;2023-08-20T06:21:31;20.50;99.90
7002;DHT22;3541;53.230;10.518;2023-08-20T06:23:58;20.50;99.90
7002;DHT22;3541;53.230;10.518;2023-08-20T06:26:25;20.60;99.90
7002;DHT22;3541;53.230;10.518;2023-08-20T06:28:51;20.50;99.90
7002;DHT22;3541;53.230;10.518;2023-08-20T06:31:18;20.50;99.90
7002;DHT22;3541;53.230;10.518;2023-08-20T06:33:44;20.60;99.90
7002;DHT22;3541;53.230;10.518;2023-08-20T06:36:11;20.60;99.90
7002;DHT22;3541;53.230;10.518;2023-08-20T06:38:39;20.60;99.90
7002;DHT22;3541;53.230;10.518;2023-08-20T06:41:05;20.70;99.90
7002;DHT22;3541;53.230;10.518;2023-08-20T06:43:32;20.70;99.90
7002;DHT22;3541;53.230;10.518;2023-08-20T06:45:58;20.70;99.90
7002;DHT22;3541;53.230;10.518;2023-08-20T06:48:25;20.80;99.90
7002;DHT22;3541;53.230;10.518;2023-08-20T06:50:52;20.80;99.90
7002;DHT22;3541;53.230;10.518;2023-08-20T06:53:18;20.70;99.90
7002;DHT22;3541;53.230;10.518;2023-08-20T06:55:46;20.80;99.90
7002;DHT22;3541;53.230;10.518;2023-08-20T06:58:13;20.80;99.90
7002;DHT22;3541;53.230;10.518;2023-08-20T07:00:39;20.80;99.90
7002;DHT22;3541;53.230;10.518;2023-08-20T07:03:06;20.80;99.90
7002;DHT22;3541;53.230;10.518;2023-08-20T07:05:33;20.90;99.90
7002;DHT22;3541;53.230;10.518;2023-08-20T07:07:59;20.90;99.90
7002;DHT22;3541;53.230;10.518;2023-08-20T07:10:26;21.00;99.90
7002;DHT22;3541;53.230;10.518;2023-08-20T07:12:54;21.10;99.90
7002;DHT22;3541;53.230;10.518;2023-08-20T07:15:21;21.20;99.90
7002;DHT22;3541;53.230;10.518;2023-08-20T07:17:47;21.20;99.90
7002;DHT22;3541;53.230;10.518;2023-08-20T07:20:14;21.20;99.90
7002;DHT22;3541;53.230;10.518;2023-08-20T07:22:40;21.20;99.90
7002;DHT22;3541;53.230;10.518;2023-08-20T07:25:08;21.20;99.90
7002;DHT22;3541;53.230;10.518;2023-08-20T07:27:34;21.20;99.90
7002;DHT22;3541;53.230;10.518;2023-08-20T07:30:02;21.20;99.90
7002;DHT22;3541;53.230;10.518;2023-08-20T07:32:29;21.30;99.90
7002;DHT22;3541;53.230;10.518;2023-08-20T07:34:56;21.40;99.90
7002;DHT22;3541;53.230;10.518;2023-08-20T07:37:22;21.40;99.90
7002;DHT22;3541;53.230;10.518;2023-08-20T07:39:49;21.40;99.90
7002;DHT22;3541;53.230;10.518;2023-08-20T07:42:15;21.40;99.90
7002;DHT22;3541;53.230;10.518;2023-08-20T07:44:43;21.50;99.90
7002;DHT22;3541;53.230;10.518;2023-08-20T07:47:11;21.50;99.90
7002;DHT22;3541;53.230;10.518;2023-08-20T07:49:38;21.50;99.90
7002;DHT22;3541;53.230;10.518;2023-08-20T07:52:04;21.60;99.90
7002;DHT22;3541;53.230;10.518;2023-08-20T07:54:31;21.60;99.90
7002;DHT22;3541;53.230;10.518;2023-08-20T07:56:57;21.70;99.90
7002;DHT22;3541;53.230;10.518;2023-08-20T07:59:24;21.70;99.90
7002;DHT22;3541;53.230;10.518;2023-08-20T08:01:51;21.80;99.90
7002;DHT22;3541;53.230;10.518;2023-08-20T08:04:19;21.80;99.90
7002;DHT22;3541;53.230;10.518;2023-08-20T08:06:45;21.80;99.90
7002;DHT22;3541;53.230;10.518;2023-08-20T08:09:18;21.90;99.90
7002;DHT22;3541;53.230;10.518;2023-08-20T08:11:46;21.90;99.90
7002;DHT22;3541;53.230;10.518;2023-08-20T08:14:12;21.90;99.90
7002;DHT22;3541;53.230;10.518;2023-08-20T08:16:39;21.90;99.90
7002;DHT22;3541;53.230;10.518;2023-08-20T08:19:05;21.90;99.90
7002;DHT22;3541;53.230;10.518;2023-08-20T08:21:33;21.90;99.90
7002;DHT22;3541;53.230;10.518;2023-08-20T08:24:00;22.00;99.90
7002;DHT22;3541;53.230;10.518;2023-08-20T08:26:27;22.10;99.90
7002;DHT22;3541;53.230;10.518;2023-08-20T08:28:54;22.10;99.90
7002;DHT22;3541;53.230;10.518;2023-08-20T08:31:21;22.30;99.90
7002;DHT22;3541;53.230;10.518;2023-08-20T08:33:47;22.30;99.90
7002;DHT22;3541;53.230;10.518;2023-08-20T08:36:14;22.30;99.90
7002;DHT22;3541;53.230;10.518;2023-08-20T08:38:43;22.40;99.90
7002;DHT22;3541;53.230;10.518;2023-08-20T08:41:11;22.40;99.90
7002;DHT22;3541;53.230;10.518;2023-08-20T08:43:37;22.50;99.90
7002;DHT22;3541;53.230;10.518;2023-08-20T08:46:07;22.50;99.90
7002;DHT22;3541;53.230;10.518;2023-08-20T08:48:34;22.50;99.90
7002;DHT22;3541;53.230;10.518;2023-08-20T08:51:02;22.50;99.90
7002;DHT22;3541;53.230;10.518;2023-08-20T08:53:29;22.50;99.90
7002;DHT22;3541;53.230;10.518;2023-08-20T08:55:58;22.50;99.90
7002;DHT22;3541;53.230;10.518;2023-08-20T08:58:25;22.60;99.90
7002;DHT22;3541;53.230;10.518;2023-08-20T09:00:52;22.70;99.90
7002;DHT22;3541;53.230;10.518;2023-08-20T09:03:19;22.70;99.90
7002;DHT22;3541;53.230;10.518;2023-08-20T09:05:46;22.80;99.90
7002;DHT22;3541;53.230;10.518;2023-08-20T09:08:19;22.90;99.90
7002;DHT22;3541;53.230;10.518;2023-08-20T09:10:45;22.90;99.90
7002;DHT22;3541;53.230;10.518;2023-08-20T09:13:13;23.00;99.90
7002;DHT22;3541;53.230;10.518;2023-08-20T09:15:40;23.00;99.90
7002;DHT22;3541;53.230;10.518;2023-08-20T09:18:09;23.00;99.90
7002;DHT22;3541;53.230;10.518;2023-08-20T09:20:36;23.00;99.90
7002;DHT22;3541;53.230;10.518;2023-08-20T09:23:03;23.10;99.90
7002;DHT22;3541;53.230;10.518;2023-08-20T09:25:30;23.20;99.90
7002;DHT22;3541;53.230;10.518;2023-08-20T09:27:56;23.30;99.90
7002;DHT22;3541;53.230;10.518;2023-08-20T09:30:25;23.30;99.90
7002;DHT22;3541;53.230;10.518;2023-08-20T09:33:03;23.40;99.90
7002;DHT22;3541;53.230;10.518;2023-08-20T09:35:30;23.50;99.90
7002;DHT22;3541;53.230;10.518;2023-08-20T09:37:59;23.50;99.90
7002;DHT22;3541;53.230;10.518;2023-08-20T09:40:27;23.60;99.90
7002;DHT22;3541;53.230;10.518;2023-08-20T09:42:54;23.70;99.90
7002;DHT22;3541;53.230;10.518;2023-08-20T09:45:25;23.70;99.90
7002;DHT22;3541;53.230;10.518;2023-08-20T09:47:55;23.80;99.90
7002;DHT22;3541;53.230;10.518;2023-08-20T09:50:23;23.80;99.90
7002;DHT22;3541;53.230;10.518;2023-08-20T09:52:56;23.80;99.90
7002;DHT22;3541;53.230;10.518;2023-08-20T09:55:28;23.90;99.90
7002;DHT22;3541;53.230;10.518;2023-08-20T09:57:56;23.90;99.90
7002;DHT22;3541;53.230;10.518;2023-08-20T10:00:27;24.00;99.90
7002;DHT22;3541;53.230;10.518;2023-08-20T10:02:54;24.10;99.90
7002;DHT22;3541;53.230;10.518;2023-08-20T10:05:23;24.10;99.90
7002;DHT22;3541;53.230;10.518;2023-08-20T10:07:49;24.10;99.90
7002;DHT22;3541;53.230;10.518;2023-08-20T10:10:17;24.20;99.90
7002;DHT22;3541;53.230;10.518;2023-08-20T10:12:44;24.10;99.90
7002;DHT22;3541;53.230;10.518;2023-08-20T10:15:12;24.20;99.90
7002;DHT22;3541;53.230;10.518;2023-08-20T10:17:42;24.20;99.90
7002;DHT22;3541;53.230;10.518;2023-08-20T10:20:09;24.40;99.90
7002;DHT22;3541;53.230;10.518;2023-08-20T10:22:37;24.40;99.90
7002;DHT22;3541;53.230;10.518;2023-08-20T10:25:06;24.50;99.90
7002;DHT22;3541;53.230;10.518;2023-08-20T10:27:34;24.60;99.90
7002;DHT22;3541;53.230;10.518;2023-08-20T10:30:03;24.70;99.90
7002;DHT22;3541;53.230;10.518;2023-08-20T10:32:48;24.80;99.90
7002;DHT22;3541;53.230;10.518;2023-08-20T10:35:16;24.80;99.90
7002;DHT22;3541;53.230;10.518;2023-08-20T10:38:06;24.80;99.90
7002;DHT22;3541;53.230;10.518;2023-08-20T10:40:52;24.90;99.90
7002;DHT22;3541;53.230;10.518;2023-08-20T10:43:29;25.00;99.90
7002;DHT22;3541;53.230;10.518;2023-08-20T10:46:04;25.00;99.90
7002;DHT22;3541;53.230;10.518;2023-08-20T10:48:33;25.10;99.90
7002;DHT22;3541;53.230;10.518;2023-08-20T10:51:09;25.10;99.90
7002;DHT22;3541;53.230;10.518;2023-08-20T10:53:37;25.10;99.90
7002;DHT22;3541;53.230;10.518;2023-08-20T10:56:11;25.10;99.90
7002;DHT22;3541;53.230;10.518;2023-08-20T10:58:41;25.20;99.90
7002;DHT22;3541;53.230;10.518;2023-08-20T11:01:29;25.30;99.90
7002;DHT22;3541;53.230;10.518;2023-08-20T11:03:57;25.40;99.90
7002;DHT22;3541;53.230;10.518;2023-08-20T11:06:31;25.40;99.90
7002;DHT22;3541;53.230;10.518;2023-08-20T11:08:58;25.40;99.90
7002;DHT22;3541;53.230;10.518;2023-08-20T11:11:25;25.40;99.90
7002;DHT22;3541;53.230;10.518;2023-08-20T11:13:51;25.50;99.90
7002;DHT22;3541;53.230;10.518;2023-08-20T11:16:19;25.60;99.90
7002;DHT22;3541;53.230;10.518;2023-08-20T11:18:46;25.60;99.90
7002;DHT22;3541;53.230;10.518;2023-08-20T11:21:14;25.70;99.90
7002;DHT22;3541;53.230;10.518;2023-08-20T11:23:40;25.80;99.90
7002;DHT22;3541;53.230;10.518;2023-08-20T11:26:08;25.80;99.90
7002;DHT22;3541;53.230;10.518;2023-08-20T11:28:35;25.80;99.90
7002;DHT22;3541;53.230;10.518;2023-08-20T11:31:02;25.90;99.90
7002;DHT22;3541;53.230;10.518;2023-08-20T11:33:29;25.90;99.90
7002;DHT22;3541;53.230;10.518;2023-08-20T11:35:56;25.90;99.90
7002;DHT22;3541;53.230;10.518;2023-08-20T11:38:24;25.90;99.90
7002;DHT22;3541;53.230;10.518;2023-08-20T11:40:51;26.00;99.90
7002;DHT22;3541;53.230;10.518;2023-08-20T11:43:18;26.10;99.90
7002;DHT22;3541;53.230;10.518;2023-08-20T11:45:46;26.20;99.90
7002;DHT22;3541;53.230;10.518;2023-08-20T11:48:13;26.20;99.90
7002;DHT22;3541;53.230;10.518;2023-08-20T11:50:39;26.20;99.90
7002;DHT22;3541;53.230;10.518;2023-08-20T11:53:07;26.30;99.90
7002;DHT22;3541;53.230;10.518;2023-08-20T11:55:35;26.30;99.90
7002;DHT22;3541;53.230;10.518;2023-08-20T11:58:01;26.40;99.90
7002;DHT22;3541;53.230;10.518;2023-08-20T12:00:31;26.50;99.90
7002;DHT22;3541;53.230;10.518;2023-08-20T12:02:58;26.60;99.90
7002;DHT22;3541;53.230;10.518;2023-08-20T12:05:26;26.70;99.90
7002;DHT22;3541;53.230;10.518;2023-08-20T12:07:57;26.70;99.90
7002;DHT22;3541;53.230;10.518;2023-08-20T12:10:25;26.80;99.90
7002;DHT22;3541;53.230;10.518;2023-08-20T12:12:54;26.80;99.90
7002;DHT22;3541;53.230;10.518;2023-08-20T12:15:21;27.00;99.90
7002;DHT22;3541;53.230;10.518;2023-08-20T12:18:00;27.00;99.90
7002;DHT22;3541;53.230;10.518;2023-08-20T12:20:30;27.10;99.90
7002;DHT22;3541;53.230;10.518;2023-08-20T12:22:59;27.20;99.90
7002;DHT22;3541;53.230;10.518;2023-08-20T12:25:27;27.20;99.90
7002;DHT22;3541;53.230;10.518;2023-08-20T12:27:55;27.30;99.90
7002;DHT22;3541;53.230;10.518;2023-08-20T12:30:21;27.40;99.90
7002;DHT22;3541;53.230;10.518;2023-08-20T12:32:48;27.60;99.90
7002;DHT22;3541;53.230;10.518;2023-08-20T12:35:15;27.70;99.90
7002;DHT22;3541;53.230;10.518;2023-08-20T12:37:41;27.70;99.90
7002;DHT22;3541;53.230;10.518;2023-08-20T12:40:09;27.80;99.90
7002;DHT22;3541;53.230;10.518;2023-08-20T12:42:38;27.90;99.90
7002;DHT22;3541;53.230;10.518;2023-08-20T12:45:06;27.90;99.90
7002;DHT22;3541;53.230;10.518;2023-08-20T12:47:34;27.90;99.90
7002;DHT22;3541;53.230;10.518;2023-08-20T12:50:00;27.80;99.90
7002;DHT22;3541;53.230;10.518;2023-08-20T12:52:28;27.70;99.90
7002;DHT22;3541;53.230;10.518;2023-08-20T12:54:55;27.60;99.90
7002;DHT22;3541;53.230;10.518;2023-08-20T12:57:21;27.50;99.90
7002;DHT22;3541;53.230;10.518;2023-08-20T12:59:48;27.50;99.90
7002;DHT22;3541;53.230;10.518;2023-08-20T13:02:17;27.20;99.90
7002;DHT22;3541;53.230;10.518;2023-08-20T13:04:44;27.10;99.90
7002;DHT22;3541;53.230;10.518;2023-08-20T13:07:12;27.20;99.90
7002;DHT22;3541;53.230;10.518;2023-08-20T13:09:40;27.50;99.90
7002;DHT22;3541;53.230;10.518;2023-08-20T13:12:09;27.70;99.90
7002;DHT22;3541;53.230;10.518;2023-08-20T13:14:38;27.80;99.90
7002;DHT22;3541;53.230;10.518;2023-08-20T13:17:05;27.60;99.90
7002;DHT22;3541;53.230;10.518;2023-08-20T13:19:33;27.40;99.90
7002;DHT22;3541;53.230;10.518;2023-08-20T13:22:00;27.20;99.90
7002;DHT22;3541;53.230;10.518;2023-08-20T13:24:26;27.10;99.90
7002;DHT22;3541;53.230;10.518;2023-08-20T13:26:53;27.30;99.90
7002;DHT22;3541;53.230;10.518;2023-08-20T13:29:19;27.60;99.90
7002;DHT22;3541;53.230;10.518;2023-08-20T13:31:46;27.70;99.90
7002;DHT22;3541;53.230;10.518;2023-08-20T13:34:12;27.80;99.90
7002;DHT22;3541;53.230;10.518;2023-08-20T13:36:41;28.00;99.90
7002;DHT22;3541;53.230;10.518;2023-08-20T13:39:07;28.10;99.90
7002;DHT22;3541;53.230;10.518;2023-08-20T13:41:34;28.10;99.90
7002;DHT22;3541;53.230;10.518;2023-08-20T13:44:00;28.10;99.90
7002;DHT22;3541;53.230;10.518;2023-08-20T13:46:27;28.20;99.90
7002;DHT22;3541;53.230;10.518;2023-08-20T13:48:54;28.30;99.90
7002;DHT22;3541;53.230;10.518;2023-08-20T13:51:21;28.40;99.90
7002;DHT22;3541;53.230;10.518;2023-08-20T13:53:49;28.50;99.90
7002;DHT22;3541;53.230;10.518;2023-08-20T13:56:15;28.70;99.90
7002;DHT22;3541;53.230;10.518;2023-08-20T13:58:42;28.90;99.90
7002;DHT22;3541;53.230;10.518;2023-08-20T14:01:08;29.00;99.90
7002;DHT22;3541;53.230;10.518;2023-08-20T14:03:36;29.10;99.90
7002;DHT22;3541;53.230;10.518;2023-08-20T14:06:03;29.30;99.90
7002;DHT22;3541;53.230;10.518;2023-08-20T14:08:30;29.50;99.90
7002;DHT22;3541;53.230;10.518;2023-08-20T14:10:58;29.70;99.90
7002;DHT22;3541;53.230;10.518;2023-08-20T14:13:24;29.80;99.90
7002;DHT22;3541;53.230;10.518;2023-08-20T14:15:51;29.60;99.90
7002;DHT22;3541;53.230;10.518;2023-08-20T14:18:18;29.40;99.90
7002;DHT22;3541;53.230;10.518;2023-08-20T14:20:44;29.10;99.90
7002;DHT22;3541;53.230;10.518;2023-08-20T14:23:11;28.80;99.90
7002;DHT22;3541;53.230;10.518;2023-08-20T14:25:37;28.50;99.90
7002;DHT22;3541;53.230;10.518;2023-08-20T14:28:07;28.70;99.90
7002;DHT22;3541;53.230;10.518;2023-08-20T14:30:36;29.00;99.90
7002;DHT22;3541;53.230;10.518;2023-08-20T14:33:03;29.30;99.90
7002;DHT22;3541;53.230;10.518;2023-08-20T14:35:29;29.50;99.90
7002;DHT22;3541;53.230;10.518;2023-08-20T14:37:56;29.50;99.90
7002;DHT22;3541;53.230;10.518;2023-08-20T14:40:23;29.60;99.90
7002;DHT22;3541;53.230;10.518;2023-08-20T14:42:50;29.70;99.90
7002;DHT22;3541;53.230;10.518;2023-08-20T14:45:18;29.70;99.90
7002;DHT22;3541;53.230;10.518;2023-08-20T14:47:44;29.70;99.90
7002;DHT22;3541;53.230;10.518;2023-08-20T14:50:11;29.90;99.90
7002;DHT22;3541;53.230;10.518;2023-08-20T14:52:37;29.90;99.90
7002;DHT22;3541;53.230;10.518;2023-08-20T14:55:05;30.00;99.90
7002;DHT22;3541;53.230;10.518;2023-08-20T14:57:33;30.10;99.90
7002;DHT22;3541;53.230;10.518;2023-08-20T15:00:00;30.20;99.90
7002;DHT22;3541;53.230;10.518;2023-08-20T15:02:30;30.40;99.90
7002;DHT22;3541;53.230;10.518;2023-08-20T15:04:56;30.60;99.90
7002;DHT22;3541;53.230;10.518;2023-08-20T15:07:23;30.70;99.90
7002;DHT22;3541;53.230;10.518;2023-08-20T15:09:50;30.80;99.90
7002;DHT22;3541;53.230;10.518;2023-08-20T15:12:16;30.80;99.90
7002;DHT22;3541;53.230;10.518;2023-08-20T15:14:43;30.90;99.90
7002;DHT22;3541;53.230;10.518;2023-08-20T15:17:09;30.90;99.90
7002;DHT22;3541;53.230;10.518;2023-08-20T15:19:37;30.80;99.90
7002;DHT22;3541;53.230;10.518;2023-08-20T15:22:04;30.80;99.90
7002;DHT22;3541;53.230;10.518;2023-08-20T15:24:31;30.70;99.90
7002;DHT22;3541;53.230;10.518;2023-08-20T15:26:58;30.80;99.90
7002;DHT22;3541;53.230;10.518;2023-08-20T15:29:24;30.70;99.90
7002;DHT22;3541;53.230;10.518;2023-08-20T15:31:51;30.60;99.90
7002;DHT22;3541;53.230;10.518;2023-08-20T15:34:17;30.50;99.90
7002;DHT22;3541;53.230;10.518;2023-08-20T15:36:45;30.50;99.90
7002;DHT22;3541;53.230;10.518;2023-08-20T15:39:12;30.40;99.90
7002;DHT22;3541;53.230;10.518;2023-08-20T15:41:39;30.40;99.90
7002;DHT22;3541;53.230;10.518;2023-08-20T15:44:06;30.30;99.90
7002;DHT22;3541;53.230;10.518;2023-08-20T15:46:33;30.10;99.90